Time;durP1;ratioP1;P1;durP2;ratioP2;P2;SDS_P1;SDS_P2;PMS_P1;PMS_P2;Temp;Humidity;BMP_temperature;BMP_pressure;BME280_temperature;BME280_humidity;BME280_pressure;Samples;Min_cycle;Max_cycle;Signal;HPM_P1;HPM_P2
2020/12/28 00:00:34;;;;;;;2.57;1.23;;;4.30;99.90;;;;;;4928370;29;20216;-71
2020/12/28 00:03:00;;;;;;;4.53;3.17;;;4.30;99.90;;;;;;4898921;29;20284;-70
2020/12/28 00:05:26;;;;;;;7.23;3.80;;;4.30;99.90;;;;;;4895166;29;20457;-70
2020/12/28 00:07:53;;;;;;;2.57;1.77;;;4.30;99.90;;;;;;4916427;28;20219;-71
2020/12/28 00:10:20;;;;;;;2.27;1.30;;;4.30;99.90;;;;;;4914017;29;20463;-71
2020/12/28 00:12:48;;;;;;;0.83;0.83;;;4.30;99.90;;;;;;4918872;29;20459;-70
2020/12/28 00:15:19;;;;;;;1.30;0.83;;;4.30;99.90;;;;;;4912501;29;20472;-70
2020/12/28 00:17:47;;;;;;;0.90;0.60;;;4.30;99.90;;;;;;4919775;29;20550;-70
2020/12/28 00:20:12;;;;;;;0.50;0.43;;;4.40;99.90;;;;;;4918808;28;20452;-70
2020/12/28 00:22:38;;;;;;;1.00;0.57;;;4.30;99.90;;;;;;4919850;29;20454;-70
2020/12/28 00:25:05;;;;;;;0.60;0.50;;;4.40;99.90;;;;;;4915368;29;20710;-70
2020/12/28 00:27:31;;;;;;;0.37;0.30;;;4.40;99.90;;;;;;4919301;28;20452;-70
2020/12/28 00:29:57;;;;;;;0.60;0.40;;;4.40;99.90;;;;;;4887631;29;21119;-71
2020/12/28 00:32:23;;;;;;;0.50;0.50;;;4.40;99.90;;;;;;4880420;29;20227;-71
2020/12/28 00:34:48;;;;;;;0.40;0.30;;;4.40;99.90;;;;;;4916290;29;20360;-71
2020/12/28 00:37:14;;;;;;;0.53;0.30;;;4.40;99.90;;;;;;4887249;28;20255;-70
2020/12/28 00:39:40;;;;;;;0.50;0.47;;;4.40;99.90;;;;;;4904613;29;20308;-71
2020/12/28 00:42:12;;;;;;;0.40;0.40;;;4.40;99.90;;;;;;4918127;29;20298;-71
2020/12/28 00:44:38;;;;;;;0.40;0.30;;;4.40;99.90;;;;;;4917922;29;20602;-71
2020/12/28 00:47:04;;;;;;;0.40;0.30;;;4.40;99.90;;;;;;4918459;29;20450;-71
2020/12/28 00:49:29;;;;;;;0.30;0.30;;;4.40;99.90;;;;;;4900428;29;20689;-71
2020/12/28 00:51:55;;;;;;;0.40;0.30;;;4.40;99.90;;;;;;4909644;28;20219;-71
2020/12/28 00:54:21;;;;;;;0.40;0.40;;;4.40;99.90;;;;;;4881943;28;20224;-71
2020/12/28 00:56:49;;;;;;;0.40;0.30;;;4.50;99.90;;;;;;4887802;29;20223;-71
2020/12/28 00:59:15;;;;;;;0.50;0.50;;;4.50;99.90;;;;;;4918146;29;20216;-71
2020/12/28 01:01:41;;;;;;;1.00;0.70;;;4.50;99.90;;;;;;4916938;29;20458;-70
2020/12/28 01:04:07;;;;;;;0.60;0.33;;;4.50;99.90;;;;;;4887097;29;20232;-70
2020/12/28 01:06:54;;;;;;;0.50;0.40;;;4.50;99.90;;;;;;4921771;29;20960;-71
2020/12/28 01:09:45;;;;;;;0.40;0.30;;;4.50;99.90;;;;;;4928372;29;20480;-70
2020/12/28 01:12:11;;;;;;;0.50;0.30;;;4.50;99.90;;;;;;4918143;29;20463;-71
2020/12/28 01:14:39;;;;;;;0.40;0.40;;;4.50;99.90;;;;;;4887106;29;20260;-71
2020/12/28 01:17:06;;;;;;;0.40;0.40;;;4.50;99.90;;;;;;4903589;28;20471;-71
2020/12/28 01:19:42;;;;;;;0.40;0.30;;;4.50;99.90;;;;;;4893379;29;20447;-70
2020/12/28 01:22:08;;;;;;;0.77;0.60;;;4.50;99.90;;;;;;4888200;29;20884;-71
2020/12/28 01:24:34;;;;;;;0.50;0.40;;;4.50;99.90;;;;;;4892391;29;20228;-71
2020/12/28 01:27:00;;;;;;;0.50;0.40;;;4.50;99.90;;;;;;4918106;28;20479;-71
2020/12/28 01:29:26;;;;;;;0.60;0.50;;;4.50;99.90;;;;;;4907909;29;20464;-70
2020/12/28 01:31:53;;;;;;;0.60;0.53;;;4.50;99.90;;;;;;4899648;29;20268;-71
2020/12/28 01:34:34;;;;;;;0.50;0.50;;;4.50;99.90;;;;;;4899795;29;20483;-71
2020/12/28 01:37:03;;;;;;;0.40;0.40;;;4.50;99.90;;;;;;4885413;29;20479;-70
2020/12/28 01:39:44;;;;;;;0.40;0.30;;;4.50;99.90;;;;;;4889116;29;20569;-70
2020/12/28 01:42:11;;;;;;;0.40;0.40;;;4.50;99.90;;;;;;4902025;29;20484;-71
2020/12/28 01:44:37;;;;;;;0.57;0.57;;;4.50;99.90;;;;;;4926564;28;20227;-70
2020/12/28 01:47:14;;;;;;;0.50;0.30;;;4.50;99.90;;;;;;4925332;28;20455;-70
2020/12/28 01:49:40;;;;;;;0.70;0.53;;;4.50;99.90;;;;;;4891524;29;20471;-71
2020/12/28 01:52:07;;;;;;;0.40;0.40;;;4.50;99.90;;;;;;4937075;28;20454;-70
2020/12/28 01:54:33;;;;;;;0.60;0.50;;;4.50;99.90;;;;;;4923703;29;20459;-71
2020/12/28 01:57:00;;;;;;;0.47;0.47;;;4.50;99.90;;;;;;4901407;29;20464;-70
2020/12/28 01:59:34;;;;;;;0.40;0.30;;;4.50;99.90;;;;;;4933991;29;20231;-71
2020/12/28 02:02:09;;;;;;;0.50;0.50;;;4.50;99.90;;;;;;4922443;28;20943;-70
2020/12/28 02:04:36;;;;;;;0.47;0.40;;;4.50;99.90;;;;;;4922279;28;20474;-71
2020/12/28 02:07:09;;;;;;;0.40;0.40;;;4.50;99.90;;;;;;4929413;28;20533;-70
2020/12/28 02:09:35;;;;;;;0.47;0.47;;;4.50;99.90;;;;;;4924780;28;20458;-70
2020/12/28 02:12:03;;;;;;;0.50;0.50;;;4.50;99.90;;;;;;4906200;29;20455;-70
2020/12/28 02:14:33;;;;;;;1.07;0.60;;;4.50;99.90;;;;;;4927524;29;20489;-70
2020/12/28 02:17:24;;;;;;;0.50;0.50;;;4.50;99.90;;;;;;4905254;29;20502;-71
2020/12/28 02:20:04;;;;;;;0.63;0.50;;;4.50;99.90;;;;;;4926336;28;20485;-71
2020/12/28 02:22:31;;;;;;;0.63;0.47;;;4.50;99.90;;;;;;4931305;29;20447;-71
2020/12/28 02:24:56;;;;;;;0.40;0.30;;;4.50;99.90;;;;;;4923719;28;20594;-71
2020/12/28 02:27:26;;;;;;;0.60;0.40;;;4.50;99.90;;;;;;4922209;29;20323;-71
2020/12/28 02:29:51;;;;;;;0.40;0.33;;;4.50;99.90;;;;;;4936029;28;20545;-71
2020/12/28 02:32:18;;;;;;;0.40;0.40;;;4.50;99.90;;;;;;4888186;29;20452;-70
2020/12/28 02:34:44;;;;;;;0.70;0.43;;;4.50;99.90;;;;;;4917607;29;20478;-70
2020/12/28 02:37:19;;;;;;;0.40;0.30;;;4.50;99.90;;;;;;4922715;29;20306;-70
2020/12/28 02:39:54;;;;;;;0.70;0.60;;;4.50;99.90;;;;;;4935474;29;20590;-70
2020/12/28 02:42:20;;;;;;;0.50;0.40;;;4.50;99.90;;;;;;4906442;29;20847;-70
2020/12/28 02:45:05;;;;;;;0.50;0.40;;;4.50;99.90;;;;;;4916496;29;20470;-70
2020/12/28 02:47:49;;;;;;;1.20;0.53;;;4.50;99.90;;;;;;4927078;29;20999;-70
2020/12/28 02:50:33;;;;;;;0.40;0.37;;;4.50;99.90;;;;;;4938001;29;20994;-71
2020/12/28 02:53:18;;;;;;;0.40;0.40;;;4.50;99.90;;;;;;4912211;28;20522;-70
2020/12/28 02:56:02;;;;;;;0.40;0.40;;;4.50;99.90;;;;;;4938813;28;20885;-70
2020/12/28 02:58:46;;;;;;;0.40;0.30;;;4.50;99.90;;;;;;4926616;28;20597;-70
2020/12/28 03:01:30;;;;;;;0.40;0.40;;;4.50;99.90;;;;;;4925833;28;20462;-71
2020/12/28 03:04:15;;;;;;;0.67;0.67;;;4.50;99.90;;;;;;4911295;29;20470;-70
2020/12/28 03:06:59;;;;;;;0.70;0.30;;;4.50;99.90;;;;;;4925669;29;20551;-72
2020/12/28 03:09:43;;;;;;;0.40;0.40;;;4.50;99.90;;;;;;4933724;28;20527;-71
2020/12/28 03:12:28;;;;;;;0.50;0.40;;;4.50;99.90;;;;;;4920223;29;20463;-70
2020/12/28 03:15:29;;;;;;;0.50;0.50;;;4.50;99.90;;;;;;4828622;29;20863;-70
2020/12/28 03:18:13;;;;;;;0.37;0.30;;;4.50;99.90;;;;;;4906633;28;20475;-70
2020/12/28 03:20:58;;;;;;;0.77;0.40;;;4.50;99.90;;;;;;4905003;29;20463;-70
2020/12/28 03:23:42;;;;;;;0.80;0.60;;;4.50;99.90;;;;;;4910409;29;20495;-71
2020/12/28 03:26:27;;;;;;;0.70;0.40;;;4.50;99.90;;;;;;4912225;28;20457;-71
2020/12/28 03:29:11;;;;;;;0.50;0.40;;;4.50;99.90;;;;;;4927932;28;20555;-70
2020/12/28 03:31:56;;;;;;;0.57;0.50;;;4.50;99.90;;;;;;4924606;28;20459;-70
2020/12/28 03:34:42;;;;;;;0.40;0.30;;;4.50;99.90;;;;;;4919364;28;20466;-70
2020/12/28 03:37:26;;;;;;;0.47;0.47;;;4.50;99.90;;;;;;4910970;28;20916;-70
2020/12/28 03:40:10;;;;;;;1.00;0.50;;;4.50;99.90;;;;;;4909738;28;20543;-71
2020/12/28 03:42:54;;;;;;;0.73;0.50;;;4.50;99.90;;;;;;4924593;29;20458;-71
2020/12/28 03:45:39;;;;;;;0.30;0.30;;;4.50;99.90;;;;;;4916972;28;20503;-70
2020/12/28 03:48:23;;;;;;;0.50;0.50;;;4.50;99.90;;;;;;4924362;28;20481;-71
2020/12/28 03:51:07;;;;;;;0.50;0.50;;;4.50;99.90;;;;;;4908762;28;20471;-71
2020/12/28 03:53:54;;;;;;;0.60;0.50;;;4.50;99.90;;;;;;4913848;29;20487;-70
2020/12/28 03:56:38;;;;;;;0.70;0.70;;;4.50;99.90;;;;;;4905401;28;20545;-70
2020/12/28 03:59:22;;;;;;;0.63;0.63;;;4.50;99.90;;;;;;4918224;28;21047;-70
2020/12/28 04:02:07;;;;;;;0.60;0.60;;;4.60;99.90;;;;;;4927879;29;20484;-70
2020/12/28 04:04:53;;;;;;;0.60;0.50;;;4.60;99.90;;;;;;4919260;28;20466;-70
2020/12/28 04:07:53;;;;;;;0.60;0.50;;;4.60;99.90;;;;;;4935967;28;20455;-71
2020/12/28 04:10:37;;;;;;;0.47;0.37;;;4.60;99.90;;;;;;4919377;29;20475;-70
2020/12/28 04:13:24;;;;;;;0.70;0.70;;;4.60;99.90;;;;;;4922006;28;20463;-70
2020/12/28 04:15:50;;;;;;;0.77;0.77;;;4.60;99.90;;;;;;4920211;29;20805;-70
2020/12/28 04:18:16;;;;;;;0.50;0.50;;;4.60;99.90;;;;;;4919425;28;20467;-70
2020/12/28 04:20:41;;;;;;;0.93;0.60;;;4.60;99.90;;;;;;4916828;29;20463;-70
2020/12/28 04:23:08;;;;;;;0.60;0.47;;;4.60;99.90;;;;;;4884871;29;20236;-71
2020/12/28 04:25:40;;;;;;;0.80;0.60;;;4.60;99.90;;;;;;5100659;27;20577;-70
2020/12/28 04:28:06;;;;;;;0.40;0.40;;;4.60;99.90;;;;;;5104979;28;20452;-71
2020/12/28 04:30:32;;;;;;;0.50;0.50;;;4.60;99.90;;;;;;5105749;28;20448;-71
2020/12/28 04:32:57;;;;;;;0.63;0.63;;;4.70;99.90;;;;;;5106789;28;20661;-70
2020/12/28 04:35:23;;;;;;;0.40;0.40;;;4.70;99.90;;;;;;5073406;28;20298;-70
2020/12/28 04:37:49;;;;;;;0.40;0.40;;;4.70;99.90;;;;;;5106911;28;20293;-73
2020/12/28 04:40:15;;;;;;;0.77;0.40;;;4.70;99.90;;;;;;5056123;27;20297;-73
2020/12/28 04:42:42;;;;;;;0.60;0.50;;;4.70;99.90;;;;;;5102039;27;20446;-73
2020/12/28 04:45:09;;;;;;;1.80;0.50;;;4.70;99.90;;;;;;5102965;28;20221;-74
2020/12/28 04:47:36;;;;;;;0.60;0.60;;;4.70;99.90;;;;;;5106344;28;20451;-73
2020/12/28 04:50:02;;;;;;;0.40;0.40;;;4.70;99.90;;;;;;5107233;27;20531;-74
2020/12/28 04:52:28;;;;;;;0.63;0.60;;;4.70;99.90;;;;;;5086154;28;20445;-73
2020/12/28 04:54:54;;;;;;;2.23;0.70;;;4.70;99.90;;;;;;5081193;28;20452;-74
2020/12/28 04:57:20;;;;;;;0.70;0.50;;;4.70;99.90;;;;;;5088629;27;20516;-73
2020/12/28 04:59:45;;;;;;;0.70;0.57;;;4.70;99.90;;;;;;5106655;28;20222;-73
2020/12/28 05:02:11;;;;;;;0.40;0.40;;;4.70;99.90;;;;;;5088836;28;20214;-73
2020/12/28 05:04:37;;;;;;;0.60;0.53;;;4.70;99.90;;;;;;5055936;28;20238;-73
2020/12/28 05:07:06;;;;;;;0.60;0.60;;;4.70;99.90;;;;;;5089419;27;20234;-74
2020/12/28 05:09:33;;;;;;;1.67;0.80;;;4.70;99.90;;;;;;5106098;28;20305;-72
2020/12/28 05:12:04;;;;;;;0.97;0.77;;;4.70;99.90;;;;;;5102444;28;20455;-75
2020/12/28 05:14:31;;;;;;;1.60;1.33;;;4.80;99.90;;;;;;5087311;28;20462;-74
2020/12/28 05:17:02;;;;;;;1.97;0.93;;;4.80;99.90;;;;;;5083826;28;20444;-74
2020/12/28 05:19:29;;;;;;;1.20;1.00;;;4.70;99.90;;;;;;5079277;28;20524;-74
2020/12/28 05:21:56;;;;;;;1.33;1.00;;;4.80;99.90;;;;;;5096559;28;20456;-74
2020/12/28 05:24:23;;;;;;;3.00;1.27;;;4.80;99.90;;;;;;5082249;28;20485;-74
2020/12/28 05:26:49;;;;;;;0.83;0.70;;;4.80;99.90;;;;;;5097150;28;20452;-73
2020/12/28 05:29:16;;;;;;;1.23;0.90;;;4.80;99.90;;;;;;5096855;28;20483;-74
2020/12/28 05:31:44;;;;;;;1.23;1.00;;;4.80;99.90;;;;;;5085840;28;20461;-74
2020/12/28 05:34:22;;;;;;;1.10;0.83;;;4.80;99.90;;;;;;5084844;28;20448;-73
2020/12/28 05:36:55;;;;;;;1.47;1.17;;;4.90;99.90;;;;;;5078421;28;20960;-75
2020/12/28 05:39:23;;;;;;;1.47;1.20;;;4.90;99.90;;;;;;5091438;28;20520;-74
2020/12/28 05:41:57;;;;;;;2.37;1.10;;;4.90;99.90;;;;;;5060362;28;20481;-74
2020/12/28 05:44:26;;;;;;;1.37;1.17;;;4.90;99.90;;;;;;5084877;28;20460;-74
2020/12/28 05:47:13;;;;;;;2.17;1.50;;;4.80;99.90;;;;;;5092368;28;20453;-73
2020/12/28 05:49:44;;;;;;;3.00;2.00;;;4.90;99.90;;;;;;5091983;28;20453;-74
2020/12/28 05:52:12;;;;;;;3.50;2.70;;;4.90;99.90;;;;;;5054414;28;20524;-74
2020/12/28 05:54:38;;;;;;;3.20;2.27;;;4.80;99.90;;;;;;5063637;28;20527;-74
2020/12/28 05:57:08;;;;;;;3.23;2.50;;;4.90;99.90;;;;;;5074165;28;20457;-74
2020/12/28 05:59:35;;;;;;;3.70;1.90;;;4.90;99.90;;;;;;5054519;28;20536;-74
2020/12/28 06:02:02;;;;;;;3.77;2.27;;;4.90;99.90;;;;;;5070145;28;20450;-74
2020/12/28 06:04:28;;;;;;;3.47;2.30;;;4.90;99.90;;;;;;5096473;28;20533;-73
2020/12/28 06:07:04;;;;;;;3.27;2.50;;;4.90;99.90;;;;;;5038474;28;20450;-72
2020/12/28 06:09:30;;;;;;;2.53;1.77;;;4.90;99.90;;;;;;5083733;28;20948;-73
2020/12/28 06:12:10;;;;;;;5.57;1.90;;;4.90;99.90;;;;;;5059402;28;20454;-73
2020/12/28 06:14:40;;;;;;;11.17;5.80;;;4.90;99.90;;;;;;5055088;28;20495;-73
2020/12/28 06:17:10;;;;;;;4.13;2.50;;;5.00;99.90;;;;;;5087734;28;20450;-73
2020/12/28 06:19:37;;;;;;;8.33;3.13;;;5.00;99.90;;;;;;5067823;28;20460;-74
2020/12/28 06:22:16;;;;;;;5.13;3.60;;;5.00;99.90;;;;;;5067057;28;20469;-73
2020/12/28 06:24:42;;;;;;;2.10;1.23;;;5.00;99.90;;;;;;5091018;28;20472;-73
2020/12/28 06:27:09;;;;;;;0.90;0.90;;;4.90;99.90;;;;;;5073941;28;20457;-72
2020/12/28 06:29:37;;;;;;;0.90;0.90;;;4.90;99.90;;;;;;5069526;28;20227;-74
2020/12/28 06:32:16;;;;;;;1.10;1.00;;;4.90;99.90;;;;;;5087296;28;20453;-73
2020/12/28 06:34:46;;;;;;;1.90;1.70;;;4.90;99.90;;;;;;5073969;28;20457;-72
2020/12/28 06:37:12;;;;;;;2.20;1.57;;;4.90;99.90;;;;;;5073717;28;20478;-72
2020/12/28 06:39:39;;;;;;;1.13;1.07;;;4.90;99.90;;;;;;5107991;28;20450;-73
2020/12/28 06:42:15;;;;;;;2.03;1.30;;;4.90;99.90;;;;;;5069009;28;20461;-73
2020/12/28 06:44:42;;;;;;;0.87;0.87;;;4.90;99.90;;;;;;5041502;28;20489;-73
2020/12/28 06:47:31;;;;;;;1.90;1.20;;;4.90;99.90;;;;;;5052805;28;20465;-73
2020/12/28 06:49:56;;;;;;;0.80;0.67;;;4.90;99.90;;;;;;5066278;28;20540;-73
2020/12/28 06:52:22;;;;;;;0.50;0.50;;;4.90;99.90;;;;;;5073851;28;20572;-73
2020/12/28 06:54:48;;;;;;;1.17;0.80;;;4.90;99.90;;;;;;5090753;28;20234;-73
2020/12/28 06:57:13;;;;;;;0.90;0.70;;;4.90;99.90;;;;;;5054154;28;20227;-73
2020/12/28 06:59:40;;;;;;;1.13;0.63;;;4.90;99.90;;;;;;5070612;28;20216;-73
2020/12/28 07:02:07;;;;;;;4.70;0.80;;;4.90;99.90;;;;;;5067282;28;20286;-74
2020/12/28 07:04:34;;;;;;;0.60;0.57;;;4.90;99.90;;;;;;5070323;28;20470;-74
2020/12/28 07:07:02;;;;;;;0.70;0.60;;;5.00;99.90;;;;;;5063472;28;20463;-74
2020/12/28 07:09:28;;;;;;;1.07;0.83;;;5.00;99.90;;;;;;5082889;28;20449;-74
2020/12/28 07:12:04;;;;;;;1.23;1.00;;;5.00;99.90;;;;;;5052545;28;20973;-73
2020/12/28 07:14:30;;;;;;;2.00;1.00;;;5.00;99.90;;;;;;5069907;28;20232;-73
2020/12/28 07:16:55;;;;;;;0.80;0.80;;;5.00;99.90;;;;;;5056550;28;20468;-73
2020/12/28 07:19:22;;;;;;;1.03;0.97;;;5.00;99.90;;;;;;5089931;28;20294;-73
2020/12/28 07:21:48;;;;;;;0.90;0.80;;;5.00;99.90;;;;;;5072687;28;20215;-73
2020/12/28 07:24:14;;;;;;;1.90;1.23;;;5.00;99.90;;;;;;5072762;28;20552;-74
2020/12/28 07:26:42;;;;;;;1.90;1.10;;;5.00;99.90;;;;;;5073217;28;20219;-72
2020/12/28 07:29:13;;;;;;;1.90;1.37;;;5.00;99.90;;;;;;5082888;28;20243;-72
2020/12/28 07:31:39;;;;;;;2.27;1.70;;;5.00;99.90;;;;;;5072565;28;20446;-72
2020/12/28 07:34:05;;;;;;;1.63;0.90;;;5.00;99.90;;;;;;5072437;28;21011;-72
2020/12/28 07:36:34;;;;;;;1.43;0.90;;;5.00;99.90;;;;;;5073264;28;20465;-72
2020/12/28 07:39:00;;;;;;;1.33;0.97;;;4.90;99.90;;;;;;5089103;28;20468;-72
2020/12/28 07:41:26;;;;;;;1.00;0.83;;;5.00;99.90;;;;;;5055035;28;20449;-73
2020/12/28 07:43:54;;;;;;;0.60;0.60;;;4.90;99.90;;;;;;5066002;28;20466;-72
2020/12/28 07:46:31;;;;;;;0.93;0.93;;;4.90;99.90;;;;;;5086008;28;20284;-72
2020/12/28 07:49:37;;;;;;;1.13;0.90;;;4.90;99.90;;;;;;5088035;28;20536;-72
2020/12/28 07:52:08;;;;;;;1.27;0.90;;;5.00;99.90;;;;;;5051977;28;20449;-72
2020/12/28 07:54:44;;;;;;;1.77;1.10;;;5.00;99.90;;;;;;5081916;28;20461;-72
2020/12/28 07:57:18;;;;;;;0.93;0.93;;;5.00;99.90;;;;;;5072534;28;20458;-72
2020/12/28 08:00:06;;;;;;;1.27;1.17;;;5.00;99.90;;;;;;5067235;28;20540;-72
2020/12/28 08:02:55;;;;;;;0.70;0.70;;;4.90;99.90;;;;;;5088953;28;20510;-72
2020/12/28 08:05:22;;;;;;;0.83;0.83;;;4.90;99.90;;;;;;5069024;28;20532;-72
2020/12/28 08:07:48;;;;;;;1.57;1.13;;;4.90;99.90;;;;;;5072507;28;20466;-72
2020/12/28 08:10:14;;;;;;;2.33;0.90;;;4.90;99.90;;;;;;5071563;28;20541;-72
2020/12/28 08:12:42;;;;;;;4.33;1.30;;;4.90;99.90;;;;;;5089065;28;20456;-72
2020/12/28 08:15:08;;;;;;;1.27;0.90;;;4.90;99.90;;;;;;5071648;28;20522;-72
2020/12/28 08:18:12;;;;;;;1.00;0.90;;;5.00;99.90;;;;;;5071690;28;20458;-72
2020/12/28 08:20:39;;;;;;;1.63;1.07;;;5.00;99.90;;;;;;5071608;28;20445;-72
2020/12/28 08:23:05;;;;;;;1.57;1.30;;;5.00;99.90;;;;;;5084869;28;20476;-72
2020/12/28 08:25:32;;;;;;;2.57;0.90;;;5.00;99.90;;;;;;5081718;28;20802;-72
2020/12/28 08:27:59;;;;;;;4.73;1.60;;;5.00;99.90;;;;;;5076497;28;20815;-72
2020/12/28 08:30:30;;;;;;;1.40;1.30;;;5.00;99.90;;;;;;5087659;28;20506;-73
2020/12/28 08:33:08;;;;;;;2.80;0.90;;;5.00;99.90;;;;;;5083976;28;20463;-72
2020/12/28 08:35:34;;;;;;;1.77;1.63;;;5.00;99.90;;;;;;5071909;28;20463;-72
2020/12/28 08:37:59;;;;;;;3.67;2.37;;;5.00;99.90;;;;;;5038093;28;20449;-72
2020/12/28 08:40:25;;;;;;;3.37;2.37;;;5.00;99.90;;;;;;5038686;28;20234;-72
2020/12/28 08:42:53;;;;;;;3.97;2.37;;;5.10;99.90;;;;;;5035027;28;20240;-72
2020/12/28 08:45:21;;;;;;;3.10;2.90;;;5.10;99.90;;;;;;5068970;28;20461;-72
2020/12/28 08:47:54;;;;;;;4.60;3.10;;;5.10;99.90;;;;;;5088730;28;20463;-72
2020/12/28 08:50:22;;;;;;;3.10;2.60;;;5.10;99.90;;;;;;5071553;28;20465;-72
2020/12/28 08:53:04;;;;;;;2.83;2.60;;;5.10;99.90;;;;;;5088182;28;20999;-72
2020/12/28 08:55:29;;;;;;;2.50;2.30;;;5.10;99.90;;;;;;5063572;28;20456;-72
2020/12/28 08:57:59;;;;;;;2.00;1.80;;;5.20;99.90;;;;;;5072298;28;20454;-72
2020/12/28 09:00:26;;;;;;;3.70;1.40;;;5.20;99.90;;;;;;5071574;28;20215;-72
2020/12/28 09:02:56;;;;;;;1.30;1.20;;;5.20;99.90;;;;;;5055329;28;20526;-72
2020/12/28 09:05:23;;;;;;;1.60;0.80;;;5.20;99.90;;;;;;5038161;28;20472;-72
2020/12/28 09:07:49;;;;;;;0.63;0.63;;;5.20;99.90;;;;;;5072065;28;20526;-72
2020/12/28 09:10:15;;;;;;;0.90;0.77;;;5.20;99.90;;;;;;5088341;28;20449;-72
2020/12/28 09:12:41;;;;;;;1.30;1.20;;;5.20;99.90;;;;;;5072171;28;20226;-72
2020/12/28 09:15:08;;;;;;;1.27;1.03;;;5.30;99.90;;;;;;5084815;28;20461;-72
2020/12/28 09:17:33;;;;;;;1.03;0.90;;;5.20;99.90;;;;;;5042362;28;20463;-72
2020/12/28 09:19:59;;;;;;;0.87;0.87;;;5.20;99.90;;;;;;5092117;28;21004;-72
2020/12/28 09:22:25;;;;;;;5.27;2.60;;;5.20;99.90;;;;;;5075466;28;20710;-72
2020/12/28 09:24:50;;;;;;;6.60;3.67;;;5.30;99.90;;;;;;5091863;28;20231;-72
2020/12/28 09:27:16;;;;;;;6.23;3.27;;;5.30;99.90;;;;;;5057457;28;20222;-72
2020/12/28 09:29:42;;;;;;;6.00;3.37;;;5.30;99.90;;;;;;5071851;28;20224;-72
2020/12/28 09:32:07;;;;;;;4.80;3.27;;;5.30;99.90;;;;;;5054652;28;20737;-72
2020/12/28 09:34:33;;;;;;;3.00;1.90;;;5.30;99.90;;;;;;5072226;28;20696;-72
2020/12/28 09:37:03;;;;;;;2.60;2.40;;;5.30;99.90;;;;;;5061890;28;20243;-72
2020/12/28 09:39:29;;;;;;;3.70;2.30;;;5.30;99.90;;;;;;5058175;28;20222;-72
2020/12/28 09:41:56;;;;;;;2.00;1.60;;;5.30;99.90;;;;;;5054867;28;21049;-73
2020/12/28 09:44:22;;;;;;;2.00;1.90;;;5.30;99.90;;;;;;5081014;28;20227;-72
2020/12/28 09:46:50;;;;;;;2.33;1.40;;;5.30;99.90;;;;;;5067075;28;20453;-72
2020/12/28 09:49:16;;;;;;;2.63;2.10;;;5.40;99.90;;;;;;5073203;28;20470;-72
2020/12/28 09:51:44;;;;;;;4.00;3.07;;;5.40;99.90;;;;;;5068431;28;20457;-73
2020/12/28 09:54:10;;;;;;;2.53;2.30;;;5.40;99.90;;;;;;5069582;28;20265;-72
2020/12/28 09:56:36;;;;;;;3.13;2.40;;;5.40;99.90;;;;;;5056638;28;20860;-72
2020/12/28 09:59:01;;;;;;;3.93;2.67;;;5.40;99.90;;;;;;5055583;28;20221;-73
2020/12/28 10:01:27;;;;;;;4.67;3.63;;;5.40;99.90;;;;;;5069331;28;20231;-72
2020/12/28 10:03:53;;;;;;;4.70;3.70;;;5.40;99.90;;;;;;5070895;28;20227;-72
2020/12/28 10:06:31;;;;;;;5.80;4.73;;;5.40;99.90;;;;;;5069462;28;20272;-72
2020/12/28 10:09:00;;;;;;;4.00;3.20;;;5.40;99.90;;;;;;5083775;28;20238;-72
2020/12/28 10:11:33;;;;;;;6.53;4.07;;;5.50;99.90;;;;;;5071575;28;20514;-72
2020/12/28 10:13:59;;;;;;;5.17;3.93;;;5.50;99.90;;;;;;5084420;28;20496;-72
2020/12/28 10:16:29;;;;;;;4.53;3.30;;;5.50;99.90;;;;;;5064350;28;20469;-72
2020/12/28 10:18:55;;;;;;;4.20;3.80;;;5.50;99.90;;;;;;5082514;28;20276;-72
2020/12/28 10:21:22;;;;;;;5.57;3.80;;;5.50;99.90;;;;;;5089244;28;20490;-72
2020/12/28 10:23:48;;;;;;;5.33;4.63;;;5.50;99.90;;;;;;5069883;28;20539;-72
2020/12/28 10:26:20;;;;;;;4.30;3.67;;;5.50;99.90;;;;;;5070022;28;20453;-72
2020/12/28 10:28:46;;;;;;;3.93;2.73;;;5.50;99.90;;;;;;5081946;28;20532;-72
2020/12/28 10:31:14;;;;;;;5.53;3.47;;;5.50;99.90;;;;;;5088926;28;20487;-72
2020/12/28 10:33:41;;;;;;;2.80;2.60;;;5.60;99.90;;;;;;5064291;28;20834;-72
2020/12/28 10:36:12;;;;;;;4.27;3.27;;;5.60;99.90;;;;;;5082444;28;20469;-72
2020/12/28 10:38:38;;;;;;;3.93;3.20;;;5.60;99.90;;;;;;5089077;28;20454;-72
2020/12/28 10:41:03;;;;;;;4.57;3.63;;;5.60;99.90;;;;;;5071724;28;21240;-72
2020/12/28 10:43:29;;;;;;;4.87;3.53;;;5.60;99.90;;;;;;5068080;28;20739;-72
2020/12/28 10:45:55;;;;;;;4.93;3.50;;;5.60;99.90;;;;;;5039604;28;20641;-72
2020/12/28 10:48:20;;;;;;;3.90;3.03;;;5.70;99.90;;;;;;5068798;28;20711;-72
2020/12/28 10:50:46;;;;;;;3.00;2.67;;;5.70;99.90;;;;;;5070847;28;20231;-73
2020/12/28 10:53:11;;;;;;;4.50;3.23;;;5.70;99.90;;;;;;5070109;28;20647;-72
2020/12/28 10:55:37;;;;;;;4.37;3.23;;;5.70;99.90;;;;;;5071898;28;20207;-72
2020/12/28 10:58:03;;;;;;;3.77;2.80;;;5.70;99.90;;;;;;5088583;28;20207;-72
2020/12/28 11:00:29;;;;;;;6.00;3.33;;;5.70;99.90;;;;;;5071440;28;20644;-72
2020/12/28 11:02:54;;;;;;;4.13;2.90;;;5.70;99.90;;;;;;5069135;28;20207;-73
2020/12/28 11:05:20;;;;;;;5.13;3.43;;;5.70;99.90;;;;;;5068974;28;20756;-73
2020/12/28 11:07:46;;;;;;;4.60;3.60;;;5.70;99.90;;;;;;5054041;28;20211;-73
2020/12/28 11:10:12;;;;;;;4.73;3.23;;;5.70;99.90;;;;;;5069658;28;20215;-74
2020/12/28 11:12:37;;;;;;;6.07;2.97;;;5.80;99.90;;;;;;5081048;28;20235;-72
2020/12/28 11:15:03;;;;;;;4.23;3.00;;;5.80;99.90;;;;;;5054656;28;20272;-72
2020/12/28 11:17:29;;;;;;;5.23;3.30;;;5.80;99.90;;;;;;5071437;28;20223;-73
2020/12/28 11:19:55;;;;;;;6.07;3.57;;;5.80;99.90;;;;;;5071903;28;20464;-74
2020/12/28 11:22:21;;;;;;;3.10;2.80;;;5.80;99.90;;;;;;5054072;28;20226;-73
2020/12/28 11:24:46;;;;;;;4.00;3.63;;;5.80;99.90;;;;;;5088529;28;20310;-73
2020/12/28 11:27:12;;;;;;;8.93;4.17;;;5.80;99.90;;;;;;5047922;28;20326;-73
2020/12/28 11:29:38;;;;;;;8.87;5.40;;;5.80;99.90;;;;;;5067958;28;20283;-73
2020/12/28 11:32:04;;;;;;;16.10;8.43;;;5.80;99.90;;;;;;5071698;28;20580;-73
2020/12/28 11:34:29;;;;;;;10.90;5.07;;;5.80;99.90;;;;;;5068437;28;20819;-73
2020/12/28 11:36:55;;;;;;;13.87;8.97;;;5.80;99.90;;;;;;5045274;28;20215;-73
2020/12/28 11:39:20;;;;;;;15.53;8.10;;;5.80;99.90;;;;;;5063813;28;20222;-73
2020/12/28 11:41:46;;;;;;;16.00;9.67;;;5.90;99.90;;;;;;5053439;28;20241;-73
2020/12/28 11:44:14;;;;;;;22.10;11.57;;;5.90;99.90;;;;;;5068192;28;20294;-73
2020/12/28 11:46:42;;;;;;;24.20;10.40;;;5.90;99.90;;;;;;5062636;28;20688;-73
2020/12/28 11:49:07;;;;;;;21.60;9.63;;;5.90;99.90;;;;;;5065818;28;20450;-74
2020/12/28 11:51:33;;;;;;;14.60;7.77;;;5.90;99.90;;;;;;5046520;28;20457;-73
2020/12/28 11:53:59;;;;;;;13.30;6.03;;;5.90;99.90;;;;;;5066083;28;20226;-73
2020/12/28 11:56:24;;;;;;;10.03;6.63;;;5.90;99.90;;;;;;5054537;28;20229;-73
2020/12/28 11:58:50;;;;;;;10.40;5.10;;;6.00;99.90;;;;;;5051875;28;20235;-73
2020/12/28 12:01:18;;;;;;;10.10;6.10;;;6.00;99.90;;;;;;5054459;28;20211;-73
2020/12/28 12:03:47;;;;;;;9.50;5.90;;;6.00;99.90;;;;;;5088715;28;20751;-72
2020/12/28 12:06:14;;;;;;;11.87;6.73;;;6.00;99.90;;;;;;5085287;28;20460;-73
2020/12/28 12:09:09;;;;;;;10.33;7.40;;;6.00;99.90;;;;;;5055201;28;20445;-73
2020/12/28 12:11:26;;;;;;;11.37;6.90;;;6.00;99.90;;;;;;5094887;28;20452;-70
2020/12/28 12:13:52;;;;;;;7.60;5.17;;;6.00;99.90;;;;;;5083245;28;20457;-73
2020/12/28 12:16:21;;;;;;;9.00;5.13;;;6.00;99.90;;;;;;5069172;28;20220;-74
2020/12/28 12:18:47;;;;;;;7.20;4.40;;;6.00;99.90;;;;;;5068091;28;20227;-74
2020/12/28 12:21:13;;;;;;;6.17;4.70;;;6.00;99.90;;;;;;5080827;28;20442;-74
2020/12/28 12:23:38;;;;;;;3.57;3.10;;;6.00;99.90;;;;;;5068398;28;20228;-73
2020/12/28 12:26:04;;;;;;;3.87;3.37;;;6.00;99.90;;;;;;5071940;28;20215;-73
2020/12/28 12:28:30;;;;;;;5.63;4.00;;;6.00;99.90;;;;;;5071202;28;20258;-74
2020/12/28 12:30:55;;;;;;;5.10;4.13;;;6.00;99.90;;;;;;5071236;28;20242;-74
2020/12/28 12:33:21;;;;;;;6.97;3.97;;;6.00;99.90;;;;;;5087941;28;20274;-74
2020/12/28 12:35:47;;;;;;;9.90;4.17;;;6.00;99.90;;;;;;5087194;28;20211;-73
2020/12/28 12:38:12;;;;;;;5.03;3.40;;;6.00;99.90;;;;;;5051058;28;20287;-73
2020/12/28 12:40:38;;;;;;;7.03;3.97;;;6.00;99.90;;;;;;5037625;28;20219;-74
2020/12/28 12:43:05;;;;;;;3.90;3.33;;;6.00;99.90;;;;;;5079575;28;20247;-73
2020/12/28 12:45:31;;;;;;;6.00;4.03;;;6.00;99.90;;;;;;5035925;28;20484;-73
2020/12/28 12:47:56;;;;;;;7.17;4.43;;;6.00;99.90;;;;;;5075106;28;20839;-74
2020/12/28 12:50:22;;;;;;;5.60;3.90;;;6.00;99.90;;;;;;5073799;28;20545;-74
2020/12/28 12:52:47;;;;;;;5.17;3.60;;;6.00;99.90;;;;;;5066766;28;20218;-74
2020/12/28 12:55:13;;;;;;;7.17;4.17;;;6.00;99.90;;;;;;5056752;28;20222;-72
2020/12/28 12:57:39;;;;;;;5.03;3.90;;;6.00;99.90;;;;;;5073481;28;20222;-74
2020/12/28 13:00:05;;;;;;;4.90;3.90;;;6.00;99.90;;;;;;5064850;28;20738;-73
2020/12/28 13:02:39;;;;;;;5.77;4.23;;;6.00;99.90;;;;;;5057105;28;20228;-73
2020/12/28 13:05:07;;;;;;;6.17;4.00;;;6.00;99.90;;;;;;5081115;28;20461;-74
2020/12/28 13:07:33;;;;;;;7.93;4.70;;;6.00;99.90;;;;;;5088714;28;20458;-75
2020/12/28 13:09:59;;;;;;;4.10;3.50;;;6.00;99.90;;;;;;5063868;28;20455;-74